Time;durP1;ratioP1;P1;durP2;ratioP2;P2;SDS_P1;SDS_P2;PMS_P1;PMS_P2;Temp;Humidity;BMP_temperature;BMP_pressure;BME280_temperature;BME280_humidity;BME280_pressure;Samples;Min_cycle;Max_cycle;Signal;HPM_P1;HPM_P2
2024/03/27 00:00:23;;;;;;;7.43;4.30;;;;;;;;;;5003100;28;20221;-88
2024/03/27 00:03:27;;;;;;;8.00;4.50;;;;;;;;;;5014279;28;20534;-88
2024/03/27 00:06:31;;;;;;;7.03;4.87;;;;;;;;;;5015135;28;20186;-88
2024/03/27 00:09:36;;;;;;;7.27;4.20;;;;;;;;;;5003134;28;20221;-87
2024/03/27 00:12:40;;;;;;;5.80;4.13;;;;;;;;;;5014280;28;20185;-88
2024/03/27 00:15:52;;;;;;;5.63;4.00;;;;;;;;;;5015101;28;20209;-88
2024/03/27 00:18:56;;;;;;;9.40;3.80;;;;;;;;;;5025330;28;20209;-88
2024/03/27 00:22:00;;;;;;;8.47;4.57;;;;;;;;;;5014716;28;20189;-88
2024/03/27 00:25:05;;;;;;;7.03;4.90;;;;;;;;;;5014269;28;20623;-89
2024/03/27 00:28:09;;;;;;;6.27;4.67;;;;;;;;;;5003374;28;20524;-89
2024/03/27 00:31:14;;;;;;;7.30;4.93;;;;;;;;;;5014329;28;20177;-88
2024/03/27 00:34:18;;;;;;;10.03;5.20;;;;;;;;;;5014186;28;20213;-88
2024/03/27 00:37:22;;;;;;;8.17;5.80;;;;;;;;;;5002922;28;20631;-88
2024/03/27 00:40:27;;;;;;;7.17;5.37;;;;;;;;;;5025226;28;20221;-89
2024/03/27 00:43:31;;;;;;;8.50;5.27;;;;;;;;;;5006280;28;20185;-88
2024/03/27 00:46:35;;;;;;;7.03;4.57;;;;;;;;;;5006251;28;20542;-88
2024/03/27 00:49:39;;;;;;;6.97;4.40;;;;;;;;;;5017932;28;20597;-89
2024/03/27 00:52:44;;;;;;;8.70;4.40;;;;;;;;;;5017396;28;20186;-88
2024/03/27 00:56:02;;;;;;;5.67;4.20;;;;;;;;;;5028737;28;20209;-88
2024/03/27 00:59:06;;;;;;;8.07;4.70;;;;;;;;;;5017290;28;20217;-88
2024/03/27 01:02:10;;;;;;;7.80;4.40;;;;;;;;;;5017910;28;20189;-89
2024/03/27 01:05:21;;;;;;;5.13;3.37;;;;;;;;;;5006573;28;20181;-88
2024/03/27 01:08:26;;;;;;;6.63;4.23;;;;;;;;;;5017573;28;20178;-87
2024/03/27 01:11:30;;;;;;;6.47;4.17;;;;;;;;;;4994866;28;20357;-88
2024/03/27 01:14:34;;;;;;;12.07;4.07;;;;;;;;;;5006403;28;20209;-88
2024/03/27 01:17:43;;;;;;;8.97;4.20;;;;;;;;;;5006263;28;20535;-88
2024/03/27 01:20:48;;;;;;;5.53;4.10;;;;;;;;;;5028676;28;20193;-88
2024/03/27 01:23:52;;;;;;;6.90;4.07;;;;;;;;;;5028374;28;20177;-88
2024/03/27 01:26:57;;;;;;;6.87;3.80;;;;;;;;;;5005373;28;20181;-88
2024/03/27 01:30:01;;;;;;;10.30;4.03;;;;;;;;;;5017035;28;20224;-88
2024/03/27 01:33:05;;;;;;;9.30;4.10;;;;;;;;;;5028206;28;20177;-88
2024/03/27 01:36:09;;;;;;;6.90;3.80;;;;;;;;;;5017034;28;20546;-88
2024/03/27 01:39:14;;;;;;;4.53;3.10;;;;;;;;;;5016554;28;20593;-88
2024/03/27 01:42:18;;;;;;;7.33;3.87;;;;;;;;;;5005091;28;20623;-88
2024/03/27 01:45:22;;;;;;;6.57;3.83;;;;;;;;;;5005160;28;20181;-88
2024/03/27 01:48:26;;;;;;;6.33;3.57;;;;;;;;;;5016208;28;20209;-87
2024/03/27 01:51:30;;;;;;;4.93;3.43;;;;;;;;;;5027922;28;20208;-88
2024/03/27 01:54:35;;;;;;;6.67;3.77;;;;;;;;;;5028633;28;20213;-84
2024/03/27 01:57:39;;;;;;;8.63;3.80;;;;;;;;;;5016632;28;20546;-85
2024/03/27 02:00:43;;;;;;;7.67;3.83;;;;;;;;;;5005555;28;20585;-85
2024/03/27 02:03:48;;;;;;;6.20;3.60;;;;;;;;;;5028052;28;20177;-85
2024/03/27 02:06:53;;;;;;;7.23;4.00;;;;;;;;;;5016864;28;20521;-85
2024/03/27 02:09:56;;;;;;;5.20;3.60;;;;;;;;;;5017893;28;20217;-85
2024/03/27 02:13:01;;;;;;;5.83;3.97;;;;;;;;;;5017757;28;20185;-85
2024/03/27 02:16:08;;;;;;;6.43;4.23;;;;;;;;;;5016617;28;20210;-85
2024/03/27 02:19:14;;;;;;;7.30;4.13;;;;;;;;;;5005320;28;20213;-85
2024/03/27 02:22:19;;;;;;;5.63;4.10;;;;;;;;;;4994232;28;20185;-85
2024/03/27 02:25:49;;;;;;;5.63;4.23;;;;;;;;;;5004799;28;20177;-85
2024/03/27 02:28:54;;;;;;;8.10;4.00;;;;;;;;;;5027366;28;20221;-85
2024/03/27 02:31:58;;;;;;;7.90;3.87;;;;;;;;;;5015166;28;20177;-85
2024/03/27 02:35:03;;;;;;;5.77;3.93;;;;;;;;;;5015149;28;20205;-85
2024/03/27 02:38:07;;;;;;;7.23;3.80;;;;;;;;;;5027498;28;20185;-85
2024/03/27 02:41:12;;;;;;;6.00;3.50;;;;;;;;;;5027386;28;20183;-85
2024/03/27 02:44:17;;;;;;;7.60;3.97;;;;;;;;;;5015248;28;20186;-85
2024/03/27 02:47:21;;;;;;;6.33;4.13;;;;;;;;;;5004846;28;20185;-85
2024/03/27 02:50:26;;;;;;;6.07;3.50;;;;;;;;;;5027079;28;20225;-85
2024/03/27 02:53:30;;;;;;;6.70;4.17;;;;;;;;;;4993060;28;20542;-86
2024/03/27 02:56:34;;;;;;;8.67;4.27;;;;;;;;;;5004565;28;20213;-85
2024/03/27 02:59:38;;;;;;;10.20;4.87;;;;;;;;;;5026754;28;20221;-86
2024/03/27 03:02:42;;;;;;;9.43;5.27;;;;;;;;;;5004551;28;20181;-85
2024/03/27 03:05:46;;;;;;;7.93;5.10;;;;;;;;;;5003652;28;20177;-85
2024/03/27 03:08:51;;;;;;;6.37;3.83;;;;;;;;;;5015764;28;20221;-85
2024/03/27 03:11:55;;;;;;;10.27;4.97;;;;;;;;;;5027163;28;20183;-86
2024/03/27 03:14:59;;;;;;;4.60;4.00;;;;;;;;;;5004655;28;20213;-86
2024/03/27 03:18:05;;;;;;;6.47;3.53;;;;;;;;;;5026717;28;20630;-86
2024/03/27 03:21:09;;;;;;;4.03;3.17;;;;;;;;;;5015834;28;20185;-86
2024/03/27 03:24:28;;;;;;;7.30;3.13;;;;;;;;;;5111900;27;20811;-85
2024/03/27 03:27:33;;;;;;;5.37;2.90;;;;;;;;;;5099583;28;20185;-85
2024/03/27 03:30:38;;;;;;;7.93;3.43;;;;;;;;;;5078978;28;20218;-85
2024/03/27 03:33:43;;;;;;;6.37;4.30;;;;;;;;;;5079105;28;20191;-85
2024/03/27 03:36:47;;;;;;;6.27;4.40;;;;;;;;;;5067883;28;20175;-85
2024/03/27 03:39:51;;;;;;;5.90;3.90;;;;;;;;;;5078748;28;20214;-85
2024/03/27 03:42:55;;;;;;;7.77;4.13;;;;;;;;;;5067721;28;20202;-85
2024/03/27 03:46:00;;;;;;;6.67;4.70;;;;;;;;;;5090683;28;20191;-85
2024/03/27 03:49:04;;;;;;;8.47;5.23;;;;;;;;;;5067260;28;20706;-85
2024/03/27 03:52:08;;;;;;;6.60;5.00;;;;;;;;;;5079157;28;20187;-85
2024/03/27 03:55:13;;;;;;;8.97;5.13;;;;;;;;;;5079052;28;20175;-85
2024/03/27 03:58:17;;;;;;;7.33;4.00;;;;;;;;;;5090717;28;20179;-85
2024/03/27 04:01:21;;;;;;;5.27;3.80;;;;;;;;;;5090373;28;20183;-85
2024/03/27 04:04:28;;;;;;;7.67;5.20;;;;;;;;;;5079348;28;20562;-85
2024/03/27 04:07:32;;;;;;;7.03;4.90;;;;;;;;;;5079168;28;20191;-85
2024/03/27 04:10:43;;;;;;;7.40;4.73;;;;;;;;;;5078839;28;20222;-85
2024/03/27 04:13:47;;;;;;;5.63;4.30;;;;;;;;;;5079505;28;20171;-85
2024/03/27 04:16:51;;;;;;;9.37;4.70;;;;;;;;;;5079509;28;20179;-85
2024/03/27 04:19:59;;;;;;;8.73;5.10;;;;;;;;;;5078585;28;20214;-85
2024/03/27 04:23:03;;;;;;;7.27;5.13;;;;;;;;;;5078521;28;20218;-85
2024/03/27 04:26:07;;;;;;;8.23;5.70;;;;;;;;;;5078940;28;20183;-85
2024/03/27 04:29:11;;;;;;;7.07;4.50;;;;;;;;;;5078616;28;20222;-85
2024/03/27 04:32:15;;;;;;;6.70;4.60;;;;;;;;;;5067690;28;20632;-85
2024/03/27 04:35:19;;;;;;;6.77;4.30;;;;;;;;;;5068434;28;20180;-85
2024/03/27 04:38:23;;;;;;;8.57;5.13;;;;;;;;;;5065169;28;20176;-86
2024/03/27 04:41:28;;;;;;;5.20;4.70;;;;;;;;;;5064984;28;20180;-85
2024/03/27 04:44:32;;;;;;;9.10;4.90;;;;;;;;;;5076829;28;20204;-85
2024/03/27 04:47:36;;;;;;;7.20;5.07;;;;;;;;;;5065349;28;20183;-85
2024/03/27 04:50:42;;;;;;;7.83;5.10;;;;;;;;;;5065051;28;20223;-85
2024/03/27 04:53:48;;;;;;;4.77;3.63;;;;;;;;;;5076123;28;20167;-84
2024/03/27 04:56:53;;;;;;;5.70;3.70;;;;;;;;;;5053548;28;20187;-85
2024/03/27 04:59:58;;;;;;;7.50;3.93;;;;;;;;;;5064947;28;20211;-85
2024/03/27 05:03:02;;;;;;;7.97;3.87;;;;;;;;;;5064444;28;20207;-84
2024/03/27 05:06:06;;;;;;;9.17;4.40;;;;;;;;;;5064836;28;20183;-85
2024/03/27 05:09:13;;;;;;;8.37;3.80;;;;;;;;;;5076653;28;20219;-85
2024/03/27 05:12:42;;;;;;;5.30;4.10;;;;;;;;;;5081865;28;20179;-85
2024/03/27 05:15:46;;;;;;;9.30;4.97;;;;;;;;;;5064428;28;20184;-85
2024/03/27 05:18:49;;;;;;;8.50;5.67;;;;;;;;;;5064158;28;20715;-85
2024/03/27 05:21:54;;;;;;;7.37;5.73;;;;;;;;;;5063986;28;20180;-85
2024/03/27 05:24:59;;;;;;;11.60;5.60;;;;;;;;;;5075568;28;20203;-83
2024/03/27 05:28:04;;;;;;;6.73;4.93;;;;;;;;;;5063944;28;20636;-86
2024/03/27 05:31:09;;;;;;;7.10;5.33;;;;;;;;;;5052713;28;20184;-87
2024/03/27 05:34:13;;;;;;;6.90;4.73;;;;;;;;;;5063687;28;20171;-86
2024/03/27 05:37:18;;;;;;;7.20;5.03;;;;;;;;;;5064087;28;20183;-86
2024/03/27 05:40:24;;;;;;;10.07;5.07;;;;;;;;;;5052213;28;20223;-86
2024/03/27 05:43:28;;;;;;;6.50;4.30;;;;;;;;;;5063445;28;20207;-86
2024/03/27 05:46:34;;;;;;;6.83;3.70;;;;;;;;;;5062844;28;20187;-85
2024/03/27 05:49:39;;;;;;;6.07;2.90;;;;;;;;;;5052452;28;20215;-85
2024/03/27 05:52:43;;;;;;;3.00;2.20;;;;;;;;;;5052704;28;20183;-85
2024/03/27 05:55:58;;;;;;;5.07;2.13;;;;;;;;;;5064180;28;20179;-85
2024/03/27 05:59:03;;;;;;;3.57;1.90;;;;;;;;;;5064893;28;20211;-84
2024/03/27 06:02:08;;;;;;;2.47;1.80;;;;;;;;;;5076863;28;20188;-84
2024/03/27 06:05:12;;;;;;;3.53;1.57;;;;;;;;;;5062744;28;20211;-85
2024/03/27 06:08:17;;;;;;;3.03;1.60;;;;;;;;;;5062764;28;20179;-84
2024/03/27 06:11:23;;;;;;;7.10;1.60;;;;;;;;;;5063065;28;20560;-84
2024/03/27 06:14:28;;;;;;;1.80;1.50;;;;;;;;;;5062639;28;20180;-85
2024/03/27 06:17:34;;;;;;;4.33;1.90;;;;;;;;;;5051816;28;20180;-84
2024/03/27 06:20:40;;;;;;;4.87;1.70;;;;;;;;;;5062900;28;20211;-85
2024/03/27 06:23:44;;;;;;;4.03;3.20;;;;;;;;;;5075056;28;20223;-84
2024/03/27 06:26:50;;;;;;;2.97;1.87;;;;;;;;;;5076336;28;20183;-82
2024/03/27 06:29:54;;;;;;;2.63;1.70;;;;;;;;;;5075941;28;20215;-85
2024/03/27 06:32:58;;;;;;;1.57;1.20;;;;;;;;;;5051603;28;20187;-85
2024/03/27 06:36:02;;;;;;;1.53;0.93;;;;;;;;;;5064001;28;20179;-85
2024/03/27 06:39:12;;;;;;;6.10;1.20;;;;;;;;;;5062392;28;20710;-85
2024/03/27 06:42:16;;;;;;;2.23;1.33;;;;;;;;;;5062202;28;20179;-85
2024/03/27 06:45:21;;;;;;;1.60;1.13;;;;;;;;;;5062293;28;20207;-85
2024/03/27 06:48:32;;;;;;;1.50;1.10;;;;;;;;;;5077620;28;20184;-86
2024/03/27 06:51:36;;;;;;;2.47;1.10;;;;;;;;;;5078501;28;20525;-86
2024/03/27 06:54:45;;;;;;;2.60;0.90;;;;;;;;;;5064001;28;20179;-86
2024/03/27 06:57:49;;;;;;;2.57;1.33;;;;;;;;;;5078289;28;20184;-85
2024/03/27 07:00:54;;;;;;;2.97;1.00;;;;;;;;;;5081136;28;20183;-85
2024/03/27 07:03:58;;;;;;;2.30;1.10;;;;;;;;;;5083544;28;20203;-86
2024/03/27 07:07:03;;;;;;;1.40;0.90;;;;;;;;;;5071759;28;20533;-85
2024/03/27 07:10:08;;;;;;;1.87;0.83;;;;;;;;;;5068134;28;20223;-85
2024/03/27 07:13:12;;;;;;;1.60;1.00;;;;;;;;;;5054559;28;20183;-83
2024/03/27 07:16:17;;;;;;;2.30;0.80;;;;;;;;;;5078108;28;20176;-84
2024/03/27 07:19:21;;;;;;;1.50;0.77;;;;;;;;;;5078460;28;20215;-85
2024/03/27 07:22:27;;;;;;;1.50;0.90;;;;;;;;;;5080940;28;20671;-87
2024/03/27 07:25:53;;;;;;;1.60;0.90;;;;;;;;;;5082718;28;20188;-88
2024/03/27 07:30:41;;;;;;;1.83;1.00;;;;;;;;;;5082033;28;20207;-88
2024/03/27 08:00:11;;;;;;;1.10;0.90;;;;;;;;;;4962919;29;20223;-89
2024/03/27 08:04:45;;;;;;;1.40;0.77;;;;;;;;;;5019206;28;20219;-88
2024/03/27 08:09:31;;;;;;;1.10;0.80;;;;;;;;;;5060468;28;20199;-88
2024/03/27 08:13:18;;;;;;;1.33;0.70;;;;;;;;;;5077837;28;20200;-88
2024/03/27 08:53:13;;;;;;;1.43;0.73;;;;;;;;;;5048963;28;20212;-88
2024/03/27 08:57:40;;;;;;;1.50;0.90;;;;;;;;;;5083747;28;20208;-88
2024/03/27 09:00:44;;;;;;;3.00;1.13;;;;;;;;;;5054155;28;20219;-88
2024/03/27 09:03:48;;;;;;;2.40;1.10;;;;;;;;;;5066006;28;20184;-88
2024/03/27 09:06:52;;;;;;;1.50;1.10;;;;;;;;;;5065244;28;20184;-88
2024/03/27 09:09:56;;;;;;;3.00;1.40;;;;;;;;;;5064793;28;20215;-88
2024/03/27 09:13:00;;;;;;;1.93;1.30;;;;;;;;;;5065168;28;20183;-88
2024/03/27 09:16:07;;;;;;;3.70;1.73;;;;;;;;;;5065246;28;20546;-89
2024/03/27 09:19:14;;;;;;;2.17;1.00;;;;;;;;;;5065223;28;20557;-89
2024/03/27 09:22:18;;;;;;;1.70;1.00;;;;;;;;;;5077385;28;20211;-88
2024/03/27 09:25:22;;;;;;;2.73;1.17;;;;;;;;;;5053149;28;20207;-88
2024/03/27 09:28:27;;;;;;;2.90;1.03;;;;;;;;;;5064308;28;20191;-88
2024/03/27 09:31:31;;;;;;;2.70;1.23;;;;;;;;;;5065369;28;20187;-85
2024/03/27 09:35:04;;;;;;;1.83;1.00;;;;;;;;;;5076113;28;20172;-86
2024/03/27 09:38:11;;;;;;;0.97;0.80;;;;;;;;;;5053973;28;20179;-86
2024/03/27 09:41:50;;;;;;;2.10;1.20;;;;;;;;;;5075662;28;20192;-85
2024/03/27 09:45:19;;;;;;;0.87;0.77;;;;;;;;;;5080853;28;20204;-83
2024/03/27 09:48:24;;;;;;;1.30;0.80;;;;;;;;;;5082077;28;20184;-83
2024/03/27 09:51:32;;;;;;;2.20;0.90;;;;;;;;;;5068843;28;20242;-85
2024/03/27 09:54:37;;;;;;;1.30;1.00;;;;;;;;;;5076278;28;20168;-85
2024/03/27 09:58:37;;;;;;;1.90;0.77;;;;;;;;;;5081074;28;20179;-86
2024/03/27 10:02:04;;;;;;;2.30;0.90;;;;;;;;;;5065419;28;20171;-86
2024/03/27 10:05:13;;;;;;;1.60;0.70;;;;;;;;;;5063798;28;20211;-86
2024/03/27 10:08:17;;;;;;;1.47;0.90;;;;;;;;;;5063686;28;20184;-86
2024/03/27 10:11:21;;;;;;;2.90;0.90;;;;;;;;;;5075735;28;20175;-86
2024/03/27 10:14:26;;;;;;;2.17;0.60;;;;;;;;;;5064278;28;20175;-87
2024/03/27 10:17:30;;;;;;;0.90;0.70;;;;;;;;;;5063935;28;20180;-87
2024/03/27 10:20:35;;;;;;;2.10;0.67;;;;;;;;;;5064020;28;20215;-87
2024/03/27 10:23:40;;;;;;;1.67;0.90;;;;;;;;;;5075096;28;20179;-87
2024/03/27 10:26:48;;;;;;;2.20;0.70;;;;;;;;;;5076229;28;20179;-87
2024/03/27 10:29:52;;;;;;;1.50;0.70;;;;;;;;;;5075909;28;20203;-87
2024/03/27 10:32:56;;;;;;;1.50;0.80;;;;;;;;;;5075658;28;20171;-87
2024/03/27 10:36:02;;;;;;;5.97;1.70;;;;;;;;;;5065540;28;20180;-87
2024/03/27 10:39:16;;;;;;;5.60;1.33;;;;;;;;;;5063282;28;20215;-85
2024/03/27 10:42:22;;;;;;;1.60;0.70;;;;;;;;;;5074353;28;20176;-85
2024/03/27 10:45:29;;;;;;;4.63;2.80;;;;;;;;;;5062419;28;20211;-86
2024/03/27 10:48:36;;;;;;;3.43;2.83;;;;;;;;;;5063175;28;20187;-86
2024/03/27 10:51:41;;;;;;;3.97;0.90;;;;;;;;;;5074201;28;20176;-86
2024/03/27 10:54:46;;;;;;;1.40;0.80;;;;;;;;;;5074126;28;20525;-86
2024/03/27 10:57:51;;;;;;;1.80;1.10;;;;;;;;;;5074317;28;20176;-86
2024/03/27 11:00:57;;;;;;;2.47;0.73;;;;;;;;;;5073752;28;20211;-86
2024/03/27 11:04:02;;;;;;;1.83;0.80;;;;;;;;;;5074182;28;20180;-85
2024/03/27 11:07:08;;;;;;;1.70;0.80;;;;;;;;;;5074290;28;20640;-86
2024/03/27 11:10:25;;;;;;;1.30;0.80;;;;;;;;;;5062547;28;20218;-86
2024/03/27 11:13:30;;;;;;;2.43;0.60;;;;;;;;;;5073830;28;20521;-85
2024/03/27 11:16:36;;;;;;;1.60;0.90;;;;;;;;;;5062338;28;20172;-86
2024/03/27 11:19:42;;;;;;;1.70;0.80;;;;;;;;;;5073686;28;20207;-86
2024/03/27 11:22:46;;;;;;;3.00;1.00;;;;;;;;;;5051095;28;20188;-86
2024/03/27 11:25:53;;;;;;;2.37;1.00;;;;;;;;;;5061976;28;20215;-86
2024/03/27 11:28:57;;;;;;;2.63;1.00;;;;;;;;;;5073686;28;20215;-85
2024/03/27 11:32:10;;;;;;;2.33;1.00;;;;;;;;;;5073908;28;20183;-86
2024/03/27 11:36:05;;;;;;;5.00;1.10;;;;;;;;;;5073669;28;20171;-86
2024/03/27 11:39:15;;;;;;;11.07;1.40;;;;;;;;;;5062630;28;20206;-88
2024/03/27 11:42:23;;;;;;;6.03;1.20;;;;;;;;;;5073669;28;20183;-86
2024/03/27 11:45:28;;;;;;;2.60;1.20;;;;;;;;;;5064846;28;20203;-86
2024/03/27 11:48:45;;;;;;;2.37;1.00;;;;;;;;;;5066690;28;20176;-87
2024/03/27 11:51:58;;;;;;;1.90;0.77;;;;;;;;;;5078708;28;20184;-83
2024/03/27 11:55:02;;;;;;;4.47;1.67;;;;;;;;;;5078876;28;20179;-85
2024/03/27 11:58:06;;;;;;;3.00;1.20;;;;;;;;;;5078146;28;20184;-86
2024/03/27 12:01:38;;;;;;;2.83;1.30;;;;;;;;;;5066904;28;20199;-86
2024/03/27 12:04:45;;;;;;;4.43;1.10;;;;;;;;;;5068645;28;20195;-83
2024/03/27 12:07:50;;;;;;;2.97;1.00;;;;;;;;;;5081440;28;20188;-84
2024/03/27 12:10:56;;;;;;;2.80;0.93;;;;;;;;;;5082070;28;20175;-83
2024/03/27 12:14:00;;;;;;;3.53;0.93;;;;;;;;;;5081497;28;20521;-83
2024/03/27 12:17:14;;;;;;;3.07;1.03;;;;;;;;;;5069586;28;20176;-84
2024/03/27 12:20:18;;;;;;;4.43;0.80;;;;;;;;;;5081690;28;20696;-84
2024/03/27 12:23:23;;;;;;;2.63;1.13;;;;;;;;;;5081059;28;20199;-84
2024/03/27 12:26:29;;;;;;;1.83;0.73;;;;;;;;;;5080407;28;20203;-84
2024/03/27 12:29:33;;;;;;;2.87;0.73;;;;;;;;;;5078971;28;20215;-86
2024/03/27 12:32:38;;;;;;;2.40;0.80;;;;;;;;;;5065434;28;20628;-85
2024/03/27 12:35:42;;;;;;;3.43;0.77;;;;;;;;;;5066282;28;20171;-85
2024/03/27 12:38:47;;;;;;;1.40;0.77;;;;;;;;;;5077393;28;20211;-85
2024/03/27 12:41:51;;;;;;;5.20;1.47;;;;;;;;;;5067121;28;20179;-85
2024/03/27 12:44:55;;;;;;;5.40;0.97;;;;;;;;;;5065982;28;20179;-85
2024/03/27 12:48:00;;;;;;;3.43;0.90;;;;;;;;;;5078487;28;20180;-85
2024/03/27 12:51:04;;;;;;;3.37;0.90;;;;;;;;;;5066428;28;20184;-85
2024/03/27 12:54:08;;;;;;;2.57;0.83;;;;;;;;;;5077695;28;20179;-86
2024/03/27 12:57:12;;;;;;;2.67;0.93;;;;;;;;;;5077700;28;20176;-86
2024/03/27 13:00:25;;;;;;;4.17;0.80;;;;;;;;;;5065974;28;20223;-88
2024/03/27 13:03:31;;;;;;;3.73;1.00;;;;;;;;;;5066413;28;20176;-87
2024/03/27 13:06:36;;;;;;;4.97;0.87;;;;;;;;;;5043738;28;20212;-87
2024/03/27 13:09:41;;;;;;;2.60;0.73;;;;;;;;;;5068402;28;20215;-87
2024/03/27 13:13:08;;;;;;;3.70;1.00;;;;;;;;;;5079464;28;20617;-87
2024/03/27 13:16:12;;;;;;;3.00;0.80;;;;;;;;;;5078209;28;20171;-87
2024/03/27 13:19:17;;;;;;;1.70;0.73;;;;;;;;;;5066294;28;20219;-87
2024/03/27 13:22:21;;;;;;;3.20;0.80;;;;;;;;;;5066234;28;20183;-85
2024/03/27 13:25:28;;;;;;;2.37;0.60;;;;;;;;;;5066615;28;20207;-86
2024/03/27 13:28:32;;;;;;;2.30;0.60;;;;;;;;;;5066004;28;20183;-86
2024/03/27 13:31:37;;;;;;;1.97;0.70;;;;;;;;;;5066177;28;20180;-86
2024/03/27 13:34:41;;;;;;;2.43;0.70;;;;;;;;;;5065271;28;20176;-86
2024/03/27 13:37:45;;;;;;;1.97;0.63;;;;;;;;;;5078760;28;20522;-84
2024/03/27 13:40:50;;;;;;;5.77;0.87;;;;;;;;;;5078732;28;20683;-84
2024/03/27 13:43:54;;;;;;;1.67;0.80;;;;;;;;;;5079917;28;20184;-83
2024/03/27 13:46:58;;;;;;;1.67;0.60;;;;;;;;;;5079359;28;20207;-83
2024/03/27 13:50:04;;;;;;;2.87;0.90;;;;;;;;;;5078757;28;20218;-83
2024/03/27 13:53:08;;;;;;;3.77;0.70;;;;;;;;;;5077829;28;20175;-84
2024/03/27 13:56:13;;;;;;;1.57;0.63;;;;;;;;;;5116771;22;20228;-81
2024/03/27 13:59:17;;;;;;;5.17;0.80;;;;;;;;;;5063623;28;20182;-80
2024/03/27 14:02:21;;;;;;;3.47;0.90;;;;;;;;;;5076244;28;20519;-81
2024/03/27 14:05:26;;;;;;;2.13;1.13;;;;;;;;;;5071836;28;20219;-81
2024/03/27 14:08:29;;;;;;;3.40;1.00;;;;;;;;;;5096744;28;20629;-81
2024/03/27 14:11:34;;;;;;;2.80;1.00;;;;;;;;;;5097281;28;20181;-81
2024/03/27 14:14:38;;;;;;;4.70;2.40;;;;;;;;;;5098025;28;20180;-81
2024/03/27 14:17:42;;;;;;;21.43;9.40;;;;;;;;;;5085452;28;20547;-82
2024/03/27 14:20:47;;;;;;;32.20;21.20;;;;;;;;;;5098593;28;20628;-82
2024/03/27 14:23:51;;;;;;;13.60;6.47;;;;;;;;;;5087123;28;20681;-82
2024/03/27 14:26:55;;;;;;;7.97;6.00;;;;;;;;;;5089805;28;20212;-83
2024/03/27 14:29:59;;;;;;;4.23;1.10;;;;;;;;;;5088677;28;20178;-83
2024/03/27 14:33:04;;;;;;;4.20;1.13;;;;;;;;;;5087026;28;20178;-83
2024/03/27 14:36:09;;;;;;;7.63;2.03;;;;;;;;;;5075084;28;20211;-83
2024/03/27 14:39:14;;;;;;;2.80;1.20;;;;;;;;;;5098208;28;20619;-83
2024/03/27 14:42:23;;;;;;;4.60;1.23;;;;;;;;;;5074845;28;20171;-83
2024/03/27 14:45:29;;;;;;;5.07;1.30;;;;;;;;;;5063280;28;20582;-83
2024/03/27 14:48:55;;;;;;;2.53;1.47;;;;;;;;;;5075977;28;20187;-84
2024/03/27 14:52:00;;;;;;;5.47;2.87;;;;;;;;;;5073390;28;20175;-81
2024/03/27 14:55:04;;;;;;;2.87;1.20;;;;;;;;;;5096077;28;20226;-81
2024/03/27 15:02:04;;;;;;;1.93;1.00;;;;;;;;;;5083953;28;20174;-82
2024/03/27 15:05:13;;;;;;;3.70;1.13;;;;;;;;;;5072514;28;20690;-84
2024/03/27 15:09:23;;;;;;;3.17;1.17;;;;;;;;;;5077843;28;20183;-84
2024/03/27 15:12:28;;;;;;;1.87;1.40;;;;;;;;;;5085141;28;20178;-84
2024/03/27 15:15:59;;;;;;;5.30;1.23;;;;;;;;;;5088715;28;20206;-84
2024/03/27 15:19:05;;;;;;;3.13;2.00;;;;;;;;;;5061565;28;20183;-84
2024/03/27 15:22:13;;;;;;;3.80;2.47;;;;;;;;;;5063213;28;20187;-83
2024/03/27 15:25:22;;;;;;;6.87;4.10;;;;;;;;;;5075256;28;20218;-84
2024/03/27 15:28:29;;;;;;;6.77;4.53;;;;;;;;;;5065208;28;20187;-84
2024/03/27 15:31:38;;;;;;;7.03;5.57;;;;;;;;;;5087455;28;20186;-85
2024/03/27 15:34:44;;;;;;;9.60;5.63;;;;;;;;;;5064225;28;20628;-84
2024/03/27 15:37:55;;;;;;;13.07;6.13;;;;;;;;;;5086816;28;20489;-84
2024/03/27 15:41:03;;;;;;;9.00;5.80;;;;;;;;;;5075840;28;20179;-84
2024/03/27 15:44:07;;;;;;;9.57;5.90;;;;;;;;;;5084862;28;20631;-84
2024/03/27 15:47:11;;;;;;;8.83;6.33;;;;;;;;;;5072524;28;20218;-84
2024/03/27 15:50:15;;;;;;;8.37;6.80;;;;;;;;;;5083881;28;20178;-83
2024/03/27 15:53:20;;;;;;;8.57;7.03;;;;;;;;;;5061251;28;20175;-82
2024/03/27 15:56:24;;;;;;;13.83;8.80;;;;;;;;;;5096263;28;20210;-83
2024/03/27 15:59:28;;;;;;;14.70;7.63;;;;;;;;;;5074783;28;20175;-82
2024/03/27 16:02:32;;;;;;;14.43;7.37;;;;;;;;;;5085765;28;20183;-83
2024/03/27 16:05:36;;;;;;;11.30;7.40;;;;;;;;;;5063471;28;20568;-83
2024/03/27 16:08:41;;;;;;;10.53;7.37;;;;;;;;;;5098285;28;20171;-82
2024/03/27 16:11:46;;;;;;;11.67;7.30;;;;;;;;;;5084892;28;20175;-82
2024/03/27 16:14:50;;;;;;;11.10;7.70;;;;;;;;;;5084380;28;20678;-82
2024/03/27 16:17:55;;;;;;;11.60;6.97;;;;;;;;;;5073046;28;20179;-82
2024/03/27 16:21:00;;;;;;;7.23;6.53;;;;;;;;;;5096889;28;20182;-83
2024/03/27 16:24:04;;;;;;;8.13;6.83;;;;;;;;;;5064126;28;20179;-84
2024/03/27 16:27:08;;;;;;;12.27;8.40;;;;;;;;;;5052911;28;20211;-88
2024/03/27 16:30:12;;;;;;;10.30;8.07;;;;;;;;;;5053102;28;20184;-84
2024/03/27 16:33:23;;;;;;;11.63;8.57;;;;;;;;;;5078742;28;20731;-85
2024/03/27 16:36:27;;;;;;;14.57;10.00;;;;;;;;;;5067560;28;20556;-86
2024/03/27 16:39:31;;;;;;;13.17;9.83;;;;;;;;;;5067120;28;20567;-86
2024/03/27 16:42:37;;;;;;;26.10;16.20;;;;;;;;;;5078740;28;20631;-85
2024/03/27 16:45:41;;;;;;;17.67;15.17;;;;;;;;;;5078100;28;20211;-86
2024/03/27 16:48:45;;;;;;;11.67;8.43;;;;;;;;;;5065447;28;20179;-86
2024/03/27 16:51:50;;;;;;;11.03;9.17;;;;;;;;;;5077738;28;20179;-85
2024/03/27 16:54:54;;;;;;;11.70;8.20;;;;;;;;;;5077605;28;20222;-83
2024/03/27 16:57:58;;;;;;;12.13;9.00;;;;;;;;;;5065194;28;20171;-85
2024/03/27 17:01:02;;;;;;;13.43;10.57;;;;;;;;;;5076673;28;20188;-83
2024/03/27 17:04:06;;;;;;;28.77;19.13;;;;;;;;;;5077714;28;20187;-85
2024/03/27 17:07:10;;;;;;;13.77;11.03;;;;;;;;;;5065200;28;20218;-85
2024/03/27 17:10:15;;;;;;;15.17;12.20;;;;;;;;;;5077863;28;20189;-85
2024/03/27 17:13:19;;;;;;;12.57;10.80;;;;;;;;;;5077659;28;20183;-85
2024/03/27 17:16:23;;;;;;;13.27;10.13;;;;;;;;;;5077275;28;20218;-84
2024/03/27 17:19:27;;;;;;;17.07;11.30;;;;;;;;;;5077299;28;20190;-83
2024/03/27 17:22:31;;;;;;;15.70;11.60;;;;;;;;;;5065064;28;20188;-84
2024/03/27 17:25:35;;;;;;;16.63;11.97;;;;;;;;;;5064747;28;20224;-84
2024/03/27 17:28:39;;;;;;;14.63;10.83;;;;;;;;;;5067926;28;20172;-85
2024/03/27 17:31:44;;;;;;;12.93;11.03;;;;;;;;;;5069025;28;20190;-84
2024/03/27 17:34:51;;;;;;;12.93;11.50;;;;;;;;;;5081265;28;20179;-84
2024/03/27 17:37:55;;;;;;;14.87;11.20;;;;;;;;;;5056722;28;20171;-84
2024/03/27 17:40:59;;;;;;;14.23;10.77;;;;;;;;;;5080302;28;20180;-83
2024/03/27 17:44:04;;;;;;;17.80;11.30;;;;;;;;;;5079506;28;20180;-85
2024/03/27 17:47:08;;;;;;;12.83;10.93;;;;;;;;;;5055798;28;20207;-83
2024/03/27 17:50:12;;;;;;;16.20;11.37;;;;;;;;;;5078963;28;20233;-84
2024/03/27 17:53:16;;;;;;;16.17;12.33;;;;;;;;;;5079134;28;20191;-84
2024/03/27 17:56:20;;;;;;;16.13;11.40;;;;;;;;;;5066999;28;20230;-84
2024/03/27 17:59:24;;;;;;;16.50;12.90;;;;;;;;;;5043809;28;20186;-84
2024/03/27 18:02:28;;;;;;;14.50;11.30;;;;;;;;;;5080879;28;20241;-84
2024/03/27 18:05:33;;;;;;;14.00;10.53;;;;;;;;;;5057278;28;20614;-82
2024/03/27 18:08:37;;;;;;;13.63;10.90;;;;;;;;;;5068178;28;20576;-84
2024/03/27 18:11:41;;;;;;;15.47;11.27;;;;;;;;;;5068053;28;20668;-84
2024/03/27 18:14:45;;;;;;;18.43;10.23;;;;;;;;;;5080040;28;20175;-84
2024/03/27 18:17:50;;;;;;;13.50;9.87;;;;;;;;;;5058518;28;20175;-83
2024/03/27 18:20:54;;;;;;;12.43;9.33;;;;;;;;;;5068621;28;20184;-84
2024/03/27 18:24:02;;;;;;;14.10;9.50;;;;;;;;;;5068248;28;20183;-83
2024/03/27 18:27:06;;;;;;;10.40;8.53;;;;;;;;;;5066286;28;20211;-83
2024/03/27 18:30:10;;;;;;;11.87;8.07;;;;;;;;;;5077543;28;20175;-84
2024/03/27 18:33:14;;;;;;;9.83;6.77;;;;;;;;;;5053865;28;20180;-84
2024/03/27 18:36:19;;;;;;;10.27;7.73;;;;;;;;;;5064701;28;20695;-82
2024/03/27 18:39:23;;;;;;;7.60;5.57;;;;;;;;;;5077296;28;20175;-82
2024/03/27 18:42:28;;;;;;;8.40;5.40;;;;;;;;;;5076149;28;20180;-83
2024/03/27 18:45:31;;;;;;;6.13;4.43;;;;;;;;;;5063868;28;20210;-84
2024/03/27 18:48:36;;;;;;;5.63;4.27;;;;;;;;;;5053225;28;20215;-84
2024/03/27 18:51:40;;;;;;;5.10;4.23;;;;;;;;;;5077176;28;20179;-84
2024/03/27 18:54:44;;;;;;;5.10;3.80;;;;;;;;;;5076912;28;20182;-83
2024/03/27 18:57:51;;;;;;;4.20;3.40;;;;;;;;;;5064283;28;20175;-83
2024/03/27 19:00:58;;;;;;;3.20;2.60;;;;;;;;;;5064512;28;20567;-82
2024/03/27 19:04:02;;;;;;;2.60;2.40;;;;;;;;;;5076909;28;20536;-83
2024/03/27 19:07:07;;;;;;;3.33;2.20;;;;;;;;;;5077145;28;20203;-82
2024/03/27 19:10:11;;;;;;;2.47;2.20;;;;;;;;;;5075837;28;20183;-83
2024/03/27 19:13:21;;;;;;;2.50;2.30;;;;;;;;;;5077108;28;20187;-84
2024/03/27 19:16:25;;;;;;;3.33;2.60;;;;;;;;;;5064507;28;20211;-84
2024/03/27 19:19:30;;;;;;;4.57;2.77;;;;;;;;;;5064521;28;20180;-83
2024/03/27 19:22:35;;;;;;;3.20;2.77;;;;;;;;;;5079740;28;20179;-83
2024/03/27 19:25:40;;;;;;;3.80;3.30;;;;;;;;;;5078876;28;20223;-84
2024/03/27 19:28:44;;;;;;;3.23;2.10;;;;;;;;;;5065965;28;20211;-85
2024/03/27 19:31:48;;;;;;;2.93;2.50;;;;;;;;;;5065065;28;20179;-86
2024/03/27 19:34:52;;;;;;;2.13;1.90;;;;;;;;;;5064851;28;20690;-85
2024/03/27 19:37:56;;;;;;;2.10;1.73;;;;;;;;;;5064557;28;20175;-86
2024/03/27 19:41:03;;;;;;;2.73;1.90;;;;;;;;;;5063514;28;20179;-83
2024/03/27 19:44:09;;;;;;;2.40;2.20;;;;;;;;;;5075956;28;20175;-82
2024/03/27 19:47:13;;;;;;;1.87;1.57;;;;;;;;;;5076232;28;20314;-84